Terminal Aerodrome Forecast
Issued by NWS Grand Rapids, MI

Home | Current Version | Previous Version | Text Only | Print | Product List | Glossary On
Versions: 1 2 3 4 5 6 7 8 9 10 11 12 13 14 15 16 17 18
000
FTUS43 KGRR 301726
TAFGRR
TAF
KGRR 301726Z 3018/0118 11003KT 1 1/2SM -DZ BR OVC006
     FM301900 30009KT 4SM BR OVC009
     FM302300 31010KT P6SM BKN025
     FM010200 31009KT P6SM SCT050
     FM010700 30006KT P6SM OVC015
     FM011100 30007KT P6SM OVC007
     FM011500 31008KT P6SM BKN025=

USA.gov is the U.S. government's official web portal to all federal, state and local government web resources and services.